createdAt,value
2023-02-18T00:01:56.852Z,88.20
2023-02-18T00:04:35.512Z,88.30
2023-02-18T00:07:11.951Z,88.40
2023-02-18T00:09:42.062Z,88.40
2023-02-18T00:12:10.361Z,89.50
2023-02-18T00:14:38.431Z,89.80
2023-02-18T00:17:07.715Z,89.90
2023-02-18T00:19:37.317Z,89.90
2023-02-18T00:22:04.286Z,89.80
2023-02-18T00:24:32.634Z,89.60
2023-02-18T00:27:02.267Z,89.50
2023-02-18T00:29:29.338Z,88.80
2023-02-18T00:31:58.899Z,89.90
2023-02-18T00:34:25.831Z,90.00
2023-02-18T00:36:52.669Z,90.00
2023-02-18T00:39:19.811Z,89.90
2023-02-18T00:41:46.714Z,89.90
2023-02-18T00:44:15.638Z,89.70
2023-02-18T00:46:43.338Z,89.60
2023-02-18T00:49:10.713Z,89.70
2023-02-18T00:51:37.898Z,89.60
2023-02-18T00:54:07.924Z,89.50
2023-02-18T00:56:35.218Z,88.50
2023-02-18T00:59:02.224Z,89.30
2023-02-18T01:01:29.662Z,88.50
2023-02-18T01:03:58.966Z,88.50
2023-02-18T01:06:26.224Z,88.50
2023-02-18T01:08:53.436Z,89.00
2023-02-18T01:11:20.835Z,88.10
2023-02-18T01:13:48.101Z,87.90
2023-02-18T01:16:15.515Z,87.70
2023-02-18T01:18:42.963Z,87.60
2023-02-18T01:21:11.585Z,87.50
2023-02-18T01:23:44.453Z,87.50
2023-02-18T01:26:11.656Z,87.80
2023-02-18T01:28:41.613Z,87.90
2023-02-18T01:31:11.104Z,87.90
2023-02-18T01:33:38.658Z,88.90
2023-02-18T01:36:06.891Z,88.00
2023-02-18T01:38:34.170Z,88.90
2023-02-18T01:41:01.429Z,88.90
2023-02-18T01:43:31.024Z,88.80
2023-02-18T01:46:06.761Z,88.90
2023-02-18T01:48:48.188Z,88.90
2023-02-18T01:51:17.540Z,89.10
2023-02-18T01:53:54.537Z,89.20
2023-02-18T01:56:29.385Z,88.90
2023-02-18T01:59:00.069Z,88.60
2023-02-18T02:01:32.641Z,87.30
2023-02-18T02:03:59.843Z,86.90
2023-02-18T02:06:27.058Z,86.60
2023-02-18T02:08:59.995Z,86.40
2023-02-18T02:11:33.410Z,86.30
2023-02-18T02:14:21.416Z,86.30
2023-02-18T02:16:56.931Z,86.40
2023-02-18T02:19:57.494Z,86.50
2023-02-18T02:22:55.871Z,86.40
2023-02-18T02:25:49.014Z,86.40
2023-02-18T02:28:40.097Z,86.10
2023-02-18T02:31:32.526Z,86.10
2023-02-18T02:34:29.041Z,87.00
2023-02-18T02:37:08.589Z,86.30
2023-02-18T02:40:10.434Z,86.00
2023-02-18T02:42:37.836Z,85.70
2023-02-18T02:45:16.266Z,85.60
2023-02-18T02:47:51.122Z,85.70
2023-02-18T02:50:24.288Z,85.50
2023-02-18T02:52:56.915Z,85.30
2023-02-18T02:55:24.437Z,85.30
2023-02-18T02:57:55.542Z,85.10
2023-02-18T03:00:47.224Z,85.30
2023-02-18T03:03:48.711Z,85.50
2023-02-18T03:06:19.126Z,85.80
2023-02-18T03:09:05.210Z,86.10
2023-02-18T03:11:44.251Z,86.30
2023-02-18T03:14:29.496Z,87.30
2023-02-18T03:17:21.280Z,88.90
2023-02-18T03:19:56.894Z,89.50
2023-02-18T03:22:34.882Z,90.00
2023-02-18T03:25:07.763Z,90.60
2023-02-18T03:27:48.796Z,90.70
2023-02-18T03:30:22.955Z,90.80
2023-02-18T03:32:53.745Z,91.00
2023-02-18T03:35:22.610Z,91.10
2023-02-18T03:38:12.410Z,91.00
2023-02-18T03:40:41.780Z,90.80
2023-02-18T03:43:12.072Z,90.60
2023-02-18T03:45:40.632Z,90.30
2023-02-18T03:48:07.946Z,89.70
2023-02-18T03:50:37.210Z,88.50
2023-02-18T03:53:12.476Z,88.00
2023-02-18T03:55:43.143Z,87.30
2023-02-18T03:59:18.046Z,86.70
2023-02-18T04:02:04.067Z,86.20
2023-02-18T04:04:51.390Z,85.40
2023-02-18T04:07:29.623Z,85.30
2023-02-18T04:10:00.125Z,85.00
2023-02-18T04:12:49.210Z,85.00
2023-02-18T04:15:22.488Z,85.00
2023-02-18T04:17:51.945Z,85.00
2023-02-18T04:20:20.905Z,84.90
2023-02-18T04:23:15.670Z,85.10
2023-02-18T04:26:19.386Z,85.20
2023-02-18T04:28:50.511Z,85.20
2023-02-18T04:31:27.169Z,85.10
2023-02-18T04:34:17.405Z,85.20
2023-02-18T04:36:45.894Z,85.30
2023-02-18T04:39:16.145Z,85.30
2023-02-18T04:41:48.215Z,85.40
2023-02-18T04:44:38.889Z,85.70
2023-02-18T04:47:07.096Z,86.10
2023-02-18T04:49:40.566Z,86.30
2023-02-18T04:52:09.615Z,86.30
2023-02-18T04:54:39.040Z,86.80
2023-02-18T04:57:05.914Z,87.40
2023-02-18T04:59:33.314Z,87.40
2023-02-18T05:02:01.705Z,88.20
2023-02-18T05:04:28.799Z,88.80
2023-02-18T05:06:55.721Z,89.60
2023-02-18T05:09:23.351Z,90.00
2023-02-18T05:11:52.902Z,90.30
2023-02-18T05:14:19.810Z,91.00
2023-02-18T05:16:46.603Z,91.30
2023-02-18T05:19:15.707Z,91.30
2023-02-18T05:21:43.179Z,91.60
2023-02-18T05:24:13.007Z,91.70
2023-02-18T05:26:40.032Z,91.80
2023-02-18T05:29:07.411Z,91.90
2023-02-18T05:31:35.614Z,92.00
2023-02-18T05:34:03.030Z,92.10
2023-02-18T05:36:29.850Z,92.20
2023-02-18T05:38:57.016Z,92.30
2023-02-18T05:41:26.381Z,92.30
2023-02-18T05:44:12.334Z,92.20
2023-02-18T05:46:45.427Z,92.20
2023-02-18T05:49:12.683Z,92.20
2023-02-18T05:51:39.626Z,92.20
2023-02-18T05:54:06.806Z,92.20
2023-02-18T05:56:33.998Z,92.30
2023-02-18T05:59:01.054Z,92.30
2023-02-18T06:01:28.326Z,92.50
2023-02-18T06:03:55.640Z,92.60
2023-02-18T06:06:25.452Z,92.80
2023-02-18T06:08:52.353Z,93.00
2023-02-18T06:11:24.438Z,93.20
2023-02-18T06:13:51.342Z,93.30
2023-02-18T06:16:20.991Z,93.40
2023-02-18T06:18:50.204Z,93.40
2023-02-18T06:21:18.106Z,93.50
2023-02-18T06:23:47.849Z,93.80
2023-02-18T06:26:15.063Z,93.80
2023-02-18T06:28:42.248Z,93.90
2023-02-18T06:31:09.378Z,94.00
2023-02-18T06:33:36.744Z,94.00
2023-02-18T06:36:08.086Z,94.00
2023-02-18T06:38:35.889Z,94.10
2023-02-18T06:41:03.421Z,94.20
2023-02-18T06:43:33.137Z,94.30
2023-02-18T06:46:05.560Z,94.20
2023-02-18T06:48:33.987Z,94.20
2023-02-18T06:51:00.945Z,94.20
2023-02-18T06:53:30.436Z,94.20
2023-02-18T06:55:57.330Z,94.30
2023-02-18T06:58:26.809Z,94.20
2023-02-18T07:00:53.765Z,94.20
2023-02-18T07:03:22.994Z,94.10
2023-02-18T07:05:50.231Z,94.00
2023-02-18T07:08:19.967Z,94.00
2023-02-18T07:10:47.487Z,93.90
2023-02-18T07:13:15.684Z,94.00
2023-02-18T07:15:42.498Z,94.00
2023-02-18T07:18:11.719Z,93.80
2023-02-18T07:20:39.034Z,93.70
2023-02-18T07:23:06.205Z,93.60
2023-02-18T07:25:33.169Z,93.40
2023-02-18T07:28:01.344Z,93.40
2023-02-18T07:30:31.386Z,93.40
2023-02-18T07:32:58.532Z,93.30
2023-02-18T07:35:25.803Z,93.20
2023-02-18T07:37:58.413Z,93.20
2023-02-18T07:40:27.948Z,93.10
2023-02-18T07:42:54.826Z,92.90
2023-02-18T07:45:23.002Z,92.70
2023-02-18T07:47:49.819Z,92.50
2023-02-18T07:50:17.968Z,91.90
2023-02-18T07:52:45.010Z,92.10
2023-02-18T07:55:12.381Z,91.70
2023-02-18T07:57:57.571Z,91.80
2023-02-18T08:00:25.193Z,91.20
2023-02-18T08:02:54.598Z,91.40
2023-02-18T08:05:25.800Z,91.00
2023-02-18T08:07:52.676Z,91.30
2023-02-18T08:10:22.277Z,91.30
2023-02-18T08:12:49.635Z,91.30
2023-02-18T08:15:17.180Z,91.10
2023-02-18T08:17:44.055Z,91.10
2023-02-18T08:20:14.116Z,91.00
2023-02-18T08:22:41.414Z,90.70
2023-02-18T08:25:11.961Z,90.70
2023-02-18T08:27:42.705Z,90.50
2023-02-18T08:30:12.506Z,90.20
2023-02-18T08:32:39.611Z,89.50
2023-02-18T08:35:10.282Z,90.10
2023-02-18T08:37:53.239Z,90.20
2023-02-18T08:40:21.965Z,88.80
2023-02-18T08:42:49.434Z,86.50
2023-02-18T08:45:16.772Z,85.80
2023-02-18T08:48:16.853Z,85.00
2023-02-18T08:50:31.815Z,84.20
2023-02-18T08:53:03.702Z,84.50
2023-02-18T08:55:32.686Z,85.30
2023-02-18T08:58:01.710Z,84.60
2023-02-18T09:00:29.056Z,84.60
2023-02-18T09:02:57.493Z,82.80
2023-02-18T09:05:24.858Z,81.90
2023-02-18T09:07:52.873Z,82.20
2023-02-18T09:10:24.159Z,82.50
2023-02-18T09:12:52.024Z,81.30
2023-02-18T09:15:21.590Z,79.80
2023-02-18T09:17:48.546Z,79.60
2023-02-18T09:20:16.379Z,80.30
2023-02-18T09:22:43.528Z,80.10
2023-02-18T09:25:11.420Z,79.00
2023-02-18T09:27:41.673Z,79.50
2023-02-18T09:30:09.453Z,78.50
2023-02-18T09:32:36.497Z,77.40
2023-02-18T09:35:33.278Z,77.20
2023-02-18T09:38:05.781Z,77.30
2023-02-18T09:40:44.693Z,77.70
2023-02-18T09:43:49.001Z,77.40
2023-02-18T09:49:23.350Z,76.70
2023-02-18T09:51:50.546Z,76.90
2023-02-18T09:54:19.992Z,76.20
2023-02-18T09:56:50.762Z,76.50
2023-02-18T09:59:20.667Z,77.00
2023-02-18T10:01:55.049Z,77.00
2023-02-18T10:04:25.294Z,76.80
2023-02-18T10:06:54.550Z,76.80
2023-02-18T10:09:22.730Z,76.60
2023-02-18T10:11:56.902Z,75.90
2023-02-18T10:14:25.794Z,75.30
2023-02-18T10:16:53.330Z,75.20
2023-02-18T10:19:20.235Z,76.00
2023-02-18T10:21:49.905Z,75.90
2023-02-18T10:24:31.309Z,75.70
2023-02-18T10:26:59.149Z,74.90
2023-02-18T10:29:26.898Z,75.10
2023-02-18T10:32:12.788Z,74.90
2023-02-18T10:34:44.349Z,75.40
2023-02-18T10:37:35.810Z,75.00
2023-02-18T10:40:13.386Z,74.40
2023-02-18T10:42:49.403Z,74.00
2023-02-18T10:45:47.290Z,74.20
2023-02-18T10:48:52.230Z,73.70
2023-02-18T10:51:30.285Z,73.60
2023-02-18T10:53:58.397Z,73.50
2023-02-18T10:56:50.953Z,73.20
2023-02-18T10:59:26.194Z,73.60
2023-02-18T11:02:00.339Z,73.80
2023-02-18T11:04:39.922Z,73.20
2023-02-18T11:07:30.448Z,72.70
2023-02-18T11:10:00.855Z,71.90
2023-02-18T11:12:50.495Z,72.40
2023-02-18T11:15:24.580Z,72.10
2023-02-18T11:17:55.398Z,72.60
2023-02-18T11:20:35.370Z,73.30
2023-02-18T11:23:08.163Z,74.30
2023-02-18T11:25:42.312Z,74.50
2023-02-18T11:28:20.486Z,75.20
2023-02-18T11:30:56.058Z,76.00
2023-02-18T11:33:58.418Z,76.30
2023-02-18T11:36:35.405Z,76.90
2023-02-18T11:39:07.476Z,77.20
2023-02-18T11:41:38.919Z,77.30
2023-02-18T11:44:18.017Z,77.50
2023-02-18T11:47:06.542Z,77.30
2023-02-18T11:49:35.482Z,76.50
2023-02-18T11:52:17.289Z,76.40
2023-02-18T11:54:59.981Z,76.30
2023-02-18T11:57:34.358Z,75.40
2023-02-18T12:00:01.824Z,75.40
2023-02-18T12:02:36.217Z,75.20
2023-02-18T12:05:19.083Z,74.30
2023-02-18T12:08:17.540Z,73.30
2023-02-18T12:10:56.227Z,73.10
2023-02-18T12:13:33.948Z,72.50
2023-02-18T12:16:21.175Z,72.40
2023-02-18T12:19:12.805Z,72.90
2023-02-18T12:21:53.097Z,72.30
2023-02-18T12:24:42.875Z,71.60
2023-02-18T12:27:19.670Z,72.20
2023-02-18T12:30:24.964Z,71.70
2023-02-18T12:33:03.161Z,71.20
2023-02-18T12:35:52.258Z,71.20
2023-02-18T12:38:24.787Z,71.10
2023-02-18T12:41:18.980Z,71.40
2023-02-18T12:44:05.133Z,71.90
2023-02-18T12:46:47.986Z,72.60
2023-02-18T12:49:44.787Z,72.70
2023-02-18T12:52:14.218Z,73.20
2023-02-18T12:55:13.602Z,73.30
2023-02-18T12:57:50.274Z,72.90
2023-02-18T13:00:36.136Z,72.10
2023-02-18T13:03:40.396Z,71.80
2023-02-18T13:06:11.069Z,71.50
2023-02-18T13:08:41.335Z,71.60
2023-02-18T13:11:14.992Z,71.60
2023-02-18T13:14:07.868Z,72.60
2023-02-18T13:16:37.443Z,73.40
2023-02-18T13:19:28.190Z,73.50
2023-02-18T13:22:07.900Z,73.80
2023-02-18T13:24:37.661Z,74.60
2023-02-18T13:27:40.736Z,75.40
2023-02-18T13:30:43.219Z,76.20
2023-02-18T13:33:35.130Z,76.10
2023-02-18T13:36:48.589Z,76.10
2023-02-18T13:39:22.137Z,76.70
2023-02-18T13:41:51.035Z,77.50
2023-02-18T13:44:22.504Z,77.30
2023-02-18T13:46:51.951Z,76.80
2023-02-18T13:49:24.996Z,77.00
2023-02-18T13:51:57.993Z,76.90
2023-02-18T13:54:29.850Z,76.70
2023-02-18T13:57:07.106Z,76.90
2023-02-18T13:59:56.986Z,76.80
2023-02-18T14:02:24.992Z,77.10
2023-02-18T14:04:57.337Z,77.60
2023-02-18T14:07:40.552Z,77.60
2023-02-18T14:10:15.150Z,77.30
2023-02-18T14:13:03.579Z,77.30
2023-02-18T14:15:32.983Z,77.00
2023-02-18T14:18:17.565Z,76.10
2023-02-18T14:20:51.913Z,76.20
2023-02-18T14:23:24.119Z,75.90
2023-02-18T14:25:57.877Z,76.00
2023-02-18T14:28:41.489Z,75.40
2023-02-18T14:31:30.999Z,75.10
2023-02-18T14:34:14.725Z,74.10
2023-02-18T14:36:57.366Z,73.60
2023-02-18T14:39:24.380Z,74.60
2023-02-18T14:42:12.634Z,74.40
2023-02-18T14:44:58.392Z,74.40
2023-02-18T14:47:54.925Z,74.70
2023-02-18T14:50:22.945Z,74.20
2023-02-18T14:53:04.662Z,73.80
2023-02-18T14:55:41.354Z,73.60
2023-02-18T14:58:35.926Z,73.10
2023-02-18T15:01:24.488Z,72.70
2023-02-18T15:03:53.918Z,73.70
2023-02-18T15:06:31.757Z,74.20
2023-02-18T15:09:00.210Z,74.70
2023-02-18T15:11:39.703Z,74.70
2023-02-18T15:14:19.565Z,75.20
2023-02-18T15:16:47.528Z,75.60
2023-02-18T15:19:20.863Z,75.80
2023-02-18T15:21:51.783Z,76.30
2023-02-18T15:24:38.007Z,76.30
2023-02-18T15:27:23.449Z,76.50
2023-02-18T15:29:55.952Z,76.60
2023-02-18T15:32:25.565Z,76.80
2023-02-18T15:35:03.191Z,77.00
2023-02-18T15:37:33.461Z,77.40
2023-02-18T15:40:00.958Z,77.40
2023-02-18T15:42:37.365Z,77.50
2023-02-18T15:45:10.692Z,77.70
2023-02-18T15:47:42.535Z,77.70
2023-02-18T15:50:22.329Z,77.70
2023-02-18T15:52:54.303Z,78.10
2023-02-18T15:55:36.704Z,77.70
2023-02-18T15:58:16.117Z,77.70
2023-02-18T16:00:50.013Z,77.80
2023-02-18T16:03:24.520Z,77.60
2023-02-18T16:06:07.677Z,77.80
2023-02-18T16:08:35.167Z,77.90
2023-02-18T16:11:13.982Z,78.20
2023-02-18T16:13:53.073Z,78.40
2023-02-18T16:16:33.559Z,78.50
2023-02-18T16:19:02.026Z,78.60
2023-02-18T16:21:30.154Z,78.80
2023-02-18T16:24:02.771Z,79.00
2023-02-18T16:26:50.396Z,79.10
2023-02-18T16:29:50.666Z,79.20
2023-02-18T16:32:17.899Z,79.30
2023-02-18T16:34:49.800Z,79.40
2023-02-18T16:37:35.484Z,79.50
2023-02-18T16:40:05.323Z,79.40
2023-02-18T16:42:33.670Z,79.40
2023-02-18T16:45:00.471Z,79.50
2023-02-18T16:47:30.109Z,79.40
2023-02-18T16:49:58.968Z,79.30
2023-02-18T16:52:28.229Z,79.50
2023-02-18T16:54:57.109Z,79.40
2023-02-18T16:57:24.252Z,79.40
2023-02-18T16:59:51.375Z,79.50
2023-02-18T17:02:22.807Z,79.40
2023-02-18T17:04:49.834Z,79.40
2023-02-18T17:07:17.537Z,79.40
2023-02-18T17:09:44.829Z,79.50
2023-02-18T17:12:14.930Z,79.40
2023-02-18T17:14:46.973Z,79.40
2023-02-18T17:17:18.307Z,79.50
2023-02-18T17:19:45.395Z,79.60
2023-02-18T17:22:14.322Z,79.80
2023-02-18T17:24:42.665Z,79.90
2023-02-18T17:27:14.092Z,79.80
2023-02-18T17:29:44.745Z,80.00
2023-02-18T17:32:13.524Z,80.20
2023-02-18T17:34:46.038Z,80.70
2023-02-18T17:37:16.323Z,81.20
2023-02-18T17:39:44.470Z,81.60
2023-02-18T17:42:15.116Z,81.90
2023-02-18T17:44:42.342Z,82.10
2023-02-18T17:47:09.361Z,82.40
2023-02-18T17:49:36.434Z,82.40
2023-02-18T17:52:07.196Z,82.10
2023-02-18T17:54:34.398Z,82.40
2023-02-18T17:57:04.670Z,82.80
2023-02-18T17:59:31.591Z,84.20
2023-02-18T18:01:58.527Z,84.70
2023-02-18T18:04:28.231Z,84.40
2023-02-18T18:06:55.769Z,85.30
2023-02-18T18:09:22.705Z,85.30
2023-02-18T18:11:49.649Z,85.20
2023-02-18T18:14:18.456Z,85.10
2023-02-18T18:16:45.820Z,85.10
2023-02-18T18:19:12.965Z,85.10
2023-02-18T18:21:40.645Z,85.20
2023-02-18T18:24:11.836Z,86.00
2023-02-18T18:26:40.073Z,86.50
2023-02-18T18:29:06.895Z,86.80
2023-02-18T18:31:36.664Z,87.30
2023-02-18T18:34:08.979Z,88.20
2023-02-18T18:36:36.180Z,89.00
2023-02-18T18:39:05.362Z,89.60
2023-02-18T18:41:32.911Z,89.80
2023-02-18T18:44:00.575Z,90.10
2023-02-18T18:46:30.025Z,90.40
2023-02-18T18:48:56.943Z,90.60
2023-02-18T18:51:32.447Z,90.90
2023-02-18T18:54:03.290Z,91.30
2023-02-18T18:56:32.129Z,91.40
2023-02-18T18:59:01.984Z,91.50
2023-02-18T19:01:29.267Z,91.70
2023-02-18T19:03:58.609Z,91.90
2023-02-18T19:06:25.801Z,92.00
2023-02-18T19:08:55.319Z,92.20
2023-02-18T19:11:25.907Z,92.30
2023-02-18T19:13:53.204Z,92.40
2023-02-18T19:16:32.861Z,92.40
2023-02-18T19:19:00.669Z,92.60
2023-02-18T19:21:29.627Z,92.70
2023-02-18T19:24:01.544Z,92.80
2023-02-18T19:26:28.893Z,93.00
2023-02-18T19:28:55.928Z,93.20
2023-02-18T19:31:25.712Z,93.30
2023-02-18T19:33:53.128Z,93.30
2023-02-18T19:36:22.702Z,93.40
2023-02-18T19:38:52.079Z,93.40
2023-02-18T19:41:22.956Z,93.60
2023-02-18T19:43:54.237Z,93.60
2023-02-18T19:46:22.146Z,93.50
2023-02-18T19:48:54.135Z,93.60
2023-02-18T19:51:23.091Z,93.60
2023-02-18T19:53:50.421Z,93.80
2023-02-18T19:56:19.740Z,93.70
2023-02-18T19:58:46.569Z,93.70
2023-02-18T20:01:15.789Z,93.80
2023-02-18T20:03:43.636Z,93.80
2023-02-18T20:06:21.084Z,93.90
2023-02-18T20:08:48.777Z,93.80
2023-02-18T20:11:17.076Z,93.80
2023-02-18T20:13:45.650Z,93.80
2023-02-18T20:16:15.149Z,93.90
2023-02-18T20:18:42.112Z,93.90
2023-02-18T20:21:12.268Z,93.90
2023-02-18T20:23:39.586Z,93.90
2023-02-18T20:26:08.660Z,93.90
2023-02-18T20:28:35.546Z,93.80
2023-02-18T20:31:12.500Z,93.70
2023-02-18T20:33:42.540Z,93.60
2023-02-18T20:36:11.124Z,93.30
2023-02-18T20:38:39.476Z,93.10
2023-02-18T20:41:08.613Z,92.90
2023-02-18T20:43:36.045Z,92.80
2023-02-18T20:46:07.687Z,92.70
2023-02-18T20:48:36.438Z,92.70
2023-02-18T20:51:11.180Z,92.50
2023-02-18T20:53:41.271Z,92.50
2023-02-18T20:56:09.436Z,92.40
2023-02-18T20:58:40.047Z,92.40
2023-02-18T21:01:13.316Z,92.30
2023-02-18T21:03:41.104Z,92.40
2023-02-18T21:06:15.598Z,92.40
2023-02-18T21:08:44.741Z,92.30
2023-02-18T21:11:18.203Z,92.30
2023-02-18T21:13:49.481Z,92.40
2023-02-18T21:16:22.220Z,92.50
2023-02-18T21:18:49.885Z,92.50
2023-02-18T21:21:49.747Z,92.60
2023-02-18T21:24:21.967Z,92.70
2023-02-18T21:26:53.856Z,92.80
2023-02-18T21:29:23.400Z,92.90
2023-02-18T21:31:50.478Z,93.00
2023-02-18T21:34:17.640Z,93.10
2023-02-18T21:36:44.735Z,93.10
2023-02-18T21:39:13.162Z,93.20
2023-02-18T21:41:41.928Z,93.30
2023-02-18T21:44:10.726Z,93.20
2023-02-18T21:46:40.822Z,93.30
2023-02-18T21:49:12.557Z,93.30
2023-02-18T21:51:56.409Z,93.30
2023-02-18T21:54:30.988Z,93.30
2023-02-18T21:56:59.632Z,93.30
2023-02-18T21:59:34.202Z,93.30
2023-02-18T22:02:04.919Z,93.30
2023-02-18T22:04:36.918Z,93.10
2023-02-18T22:07:06.394Z,92.90
2023-02-18T22:09:33.350Z,92.80
2023-02-18T22:12:00.325Z,92.40
2023-02-18T22:14:31.191Z,92.30
2023-02-18T22:17:01.479Z,92.20
2023-02-18T22:19:28.333Z,92.20
2023-02-18T22:21:56.567Z,92.20
2023-02-18T22:24:23.671Z,92.30
2023-02-18T22:26:51.008Z,92.40
2023-02-18T22:29:22.605Z,92.40
2023-02-18T22:31:50.309Z,92.50
2023-02-18T22:34:20.179Z,92.30
2023-02-18T22:36:47.448Z,92.00
2023-02-18T22:39:15.972Z,92.00
2023-02-18T22:41:45.323Z,91.70
2023-02-18T22:44:15.000Z,91.70
2023-02-18T22:46:42.979Z,91.60
2023-02-18T22:49:12.867Z,91.40
2023-02-18T22:51:44.602Z,91.10
2023-02-18T22:54:18.341Z,91.00
2023-02-18T22:56:48.882Z,91.10
2023-02-18T22:59:17.951Z,90.80
2023-02-18T23:01:50.077Z,90.80
2023-02-18T23:04:21.618Z,91.00
2023-02-18T23:06:48.938Z,91.00
2023-02-18T23:09:26.171Z,90.90
2023-02-18T23:11:57.583Z,90.90
2023-02-18T23:14:28.299Z,90.90
2023-02-18T23:17:13.170Z,91.10
2023-02-18T23:19:49.564Z,91.00
2023-02-18T23:22:19.819Z,91.10
2023-02-18T23:24:54.716Z,91.10
2023-02-18T23:27:25.702Z,91.10
2023-02-18T23:29:53.827Z,91.20
2023-02-18T23:32:27.819Z,91.30
2023-02-18T23:34:55.755Z,91.40
2023-02-18T23:37:44.110Z,91.40
2023-02-18T23:40:16.856Z,91.50
2023-02-18T23:42:43.978Z,91.60
2023-02-18T23:45:11.564Z,91.60
2023-02-18T23:47:53.519Z,91.50
2023-02-18T23:50:21.727Z,91.50
2023-02-18T23:52:58.710Z,91.50
2023-02-18T23:55:25.877Z,91.40
2023-02-18T23:57:53.819Z,91.40
